sensor_id;sensor_type;location;lat;lon;timestamp;P1;durP1;ratioP1;P2;durP2;ratioP2
45714;SDS011;31430;61.646;24.704;2023-05-24T00:04:11;25.70;;;24.10;;
45714;SDS011;31430;61.646;24.704;2023-05-24T00:20:38;41.83;;;39.22;;
45714;SDS011;31430;61.646;24.704;2023-05-24T00:23:03;33.28;;;31.17;;
45714;SDS011;31430;61.646;24.704;2023-05-24T00:25:29;30.85;;;28.92;;
45714;SDS011;31430;61.646;24.704;2023-05-24T00:27:55;28.50;;;26.70;;
45714;SDS011;31430;61.646;24.704;2023-05-24T00:30:20;27.83;;;26.10;;
45714;SDS011;31430;61.646;24.704;2023-05-24T00:32:46;26.15;;;24.52;;
45714;SDS011;31430;61.646;24.704;2023-05-24T00:35:12;26.92;;;25.23;;
45714;SDS011;31430;61.646;24.704;2023-05-24T00:37:37;26.45;;;24.77;;
45714;SDS011;31430;61.646;24.704;2023-05-24T00:40:08;25.88;;;24.27;;
45714;SDS011;31430;61.646;24.704;2023-05-24T00:42:37;27.40;;;25.70;;
45714;SDS011;31430;61.646;24.704;2023-05-24T00:45:03;26.13;;;24.50;;
45714;SDS011;31430;61.646;24.704;2023-05-24T00:49:55;26.88;;;25.17;;
45714;SDS011;31430;61.646;24.704;2023-05-24T00:52:21;27.20;;;25.50;;
45714;SDS011;31430;61.646;24.704;2023-05-24T00:54:47;26.52;;;24.83;;
45714;SDS011;31430;61.646;24.704;2023-05-24T00:59:39;27.30;;;25.60;;
45714;SDS011;31430;61.646;24.704;2023-05-24T01:04:30;27.38;;;25.67;;
45714;SDS011;31430;61.646;24.704;2023-05-24T01:07:05;26.95;;;25.25;;
45714;SDS011;31430;61.646;24.704;2023-05-24T01:12:39;26.75;;;25.05;;
45714;SDS011;31430;61.646;24.704;2023-05-24T01:15:36;27.77;;;26.05;;
45714;SDS011;31430;61.646;24.704;2023-05-24T01:18:09;27.80;;;26.08;;
45714;SDS011;31430;61.646;24.704;2023-05-24T01:20:40;26.75;;;25.05;;
45714;SDS011;31430;61.646;24.704;2023-05-24T01:28:27;34.40;;;32.25;;
45714;SDS011;31430;61.646;24.704;2023-05-24T01:30:55;26.08;;;24.48;;
45714;SDS011;31430;61.646;24.704;2023-05-24T01:33:22;27.10;;;25.40;;
45714;SDS011;31430;61.646;24.704;2023-05-24T01:35:48;28.60;;;26.80;;
45714;SDS011;31430;61.646;24.704;2023-05-24T01:38:14;27.15;;;25.45;;
45714;SDS011;31430;61.646;24.704;2023-05-24T01:40:40;27.40;;;25.70;;
45714;SDS011;31430;61.646;24.704;2023-05-24T01:43:26;28.33;;;26.52;;
45714;SDS011;31430;61.646;24.704;2023-05-24T01:46:10;27.35;;;25.65;;
45714;SDS011;31430;61.646;24.704;2023-05-24T01:49:04;27.20;;;25.50;;
45714;SDS011;31430;61.646;24.704;2023-05-24T01:51:43;27.67;;;25.98;;
45714;SDS011;31430;61.646;24.704;2023-05-24T01:54:19;28.55;;;26.75;;
45714;SDS011;31430;61.646;24.704;2023-05-24T01:56:48;27.90;;;26.15;;
45714;SDS011;31430;61.646;24.704;2023-05-24T01:59:21;28.10;;;26.33;;
45714;SDS011;31430;61.646;24.704;2023-05-24T02:01:49;27.20;;;25.50;;
45714;SDS011;31430;61.646;24.704;2023-05-24T02:04:15;27.30;;;25.60;;
45714;SDS011;31430;61.646;24.704;2023-05-24T02:06:41;26.85;;;25.15;;
45714;SDS011;31430;61.646;24.704;2023-05-24T02:09:07;27.33;;;25.63;;
45714;SDS011;31430;61.646;24.704;2023-05-24T02:11:33;26.80;;;25.10;;
45714;SDS011;31430;61.646;24.704;2023-05-24T02:13:58;26.15;;;24.55;;
45714;SDS011;31430;61.646;24.704;2023-05-24T02:16:24;26.65;;;24.95;;
45714;SDS011;31430;61.646;24.704;2023-05-24T02:18:51;26.23;;;24.58;;
45714;SDS011;31430;61.646;24.704;2023-05-24T02:21:17;25.90;;;24.30;;
45714;SDS011;31430;61.646;24.704;2023-05-24T02:23:43;25.35;;;23.75;;
45714;SDS011;31430;61.646;24.704;2023-05-24T02:26:08;25.65;;;24.05;;
45714;SDS011;31430;61.646;24.704;2023-05-24T02:28:36;25.27;;;23.67;;
45714;SDS011;31430;61.646;24.704;2023-05-24T02:31:01;24.65;;;23.10;;
45714;SDS011;31430;61.646;24.704;2023-05-24T02:33:27;23.75;;;22.25;;
45714;SDS011;31430;61.646;24.704;2023-05-24T02:35:54;24.92;;;23.33;;
45714;SDS011;31430;61.646;24.704;2023-05-24T02:38:20;24.63;;;23.08;;
45714;SDS011;31430;61.646;24.704;2023-05-24T02:40:46;24.67;;;23.13;;
45714;SDS011;31430;61.646;24.704;2023-05-24T02:43:12;24.45;;;22.95;;
45714;SDS011;31430;61.646;24.704;2023-05-24T02:45:38;23.77;;;22.27;;
45714;SDS011;31430;61.646;24.704;2023-05-24T02:48:03;24.77;;;23.20;;
45714;SDS011;31430;61.646;24.704;2023-05-24T02:50:29;24.38;;;22.88;;
45714;SDS011;31430;61.646;24.704;2023-05-24T02:52:55;24.08;;;22.58;;
45714;SDS011;31430;61.646;24.704;2023-05-24T02:55:20;24.48;;;22.95;;
45714;SDS011;31430;61.646;24.704;2023-05-24T02:57:47;26.35;;;24.70;;
45714;SDS011;31430;61.646;24.704;2023-05-24T03:00:13;25.63;;;24.02;;
45714;SDS011;31430;61.646;24.704;2023-05-24T03:02:39;24.85;;;23.25;;
45714;SDS011;31430;61.646;24.704;2023-05-24T03:05:05;24.83;;;23.25;;
45714;SDS011;31430;61.646;24.704;2023-05-24T03:07:32;24.73;;;23.15;;
45714;SDS011;31430;61.646;24.704;2023-05-24T03:09:58;25.45;;;23.85;;
45714;SDS011;31430;61.646;24.704;2023-05-24T03:12:24;23.95;;;22.45;;
45714;SDS011;31430;61.646;24.704;2023-05-24T03:14:49;24.40;;;22.90;;
45714;SDS011;31430;61.646;24.704;2023-05-24T03:17:15;25.45;;;23.85;;
45714;SDS011;31430;61.646;24.704;2023-05-24T03:19:41;23.52;;;22.02;;
45714;SDS011;31430;61.646;24.704;2023-05-24T03:22:06;24.30;;;22.80;;
45714;SDS011;31430;61.646;24.704;2023-05-24T03:24:32;23.45;;;21.95;;
45714;SDS011;31430;61.646;24.704;2023-05-24T03:26:58;24.58;;;23.05;;
45714;SDS011;31430;61.646;24.704;2023-05-24T03:29:25;24.17;;;22.67;;
45714;SDS011;31430;61.646;24.704;2023-05-24T03:31:50;23.50;;;22.00;;
45714;SDS011;31430;61.646;24.704;2023-05-24T03:34:16;23.73;;;22.23;;
45714;SDS011;31430;61.646;24.704;2023-05-24T03:36:42;23.67;;;22.17;;
45714;SDS011;31430;61.646;24.704;2023-05-24T03:39:07;24.95;;;23.35;;
45714;SDS011;31430;61.646;24.704;2023-05-24T03:41:33;23.75;;;22.25;;
45714;SDS011;31430;61.646;24.704;2023-05-24T03:43:59;23.52;;;22.02;;
45714;SDS011;31430;61.646;24.704;2023-05-24T03:46:25;23.83;;;22.33;;
45714;SDS011;31430;61.646;24.704;2023-05-24T03:48:50;23.60;;;22.10;;
45714;SDS011;31430;61.646;24.704;2023-05-24T03:51:16;24.52;;;23.00;;
45714;SDS011;31430;61.646;24.704;2023-05-24T03:53:42;22.90;;;21.48;;
45714;SDS011;31430;61.646;24.704;2023-05-24T03:56:07;23.70;;;22.20;;
45714;SDS011;31430;61.646;24.704;2023-05-24T03:58:33;23.02;;;21.58;;
45714;SDS011;31430;61.646;24.704;2023-05-24T04:00:59;23.90;;;22.40;;
45714;SDS011;31430;61.646;24.704;2023-05-24T04:03:25;23.35;;;21.85;;
45714;SDS011;31430;61.646;24.704;2023-05-24T04:05:52;23.35;;;21.85;;
45714;SDS011;31430;61.646;24.704;2023-05-24T04:08:18;22.80;;;21.40;;
45714;SDS011;31430;61.646;24.704;2023-05-24T04:10:43;22.63;;;21.23;;
45714;SDS011;31430;61.646;24.704;2023-05-24T04:13:09;22.40;;;21.00;;
45714;SDS011;31430;61.646;24.704;2023-05-24T04:15:35;23.52;;;22.02;;
45714;SDS011;31430;61.646;24.704;2023-05-24T04:18:01;22.92;;;21.50;;
45714;SDS011;31430;61.646;24.704;2023-05-24T04:20:27;22.15;;;20.75;;
45714;SDS011;31430;61.646;24.704;2023-05-24T04:22:53;22.08;;;20.67;;
45714;SDS011;31430;61.646;24.704;2023-05-24T04:27:45;23.38;;;21.88;;
45714;SDS011;31430;61.646;24.704;2023-05-24T04:30:14;22.30;;;20.90;;
45714;SDS011;31430;61.646;24.704;2023-05-24T04:35:08;23.38;;;21.88;;
45714;SDS011;31430;61.646;24.704;2023-05-24T04:37:34;22.35;;;20.95;;
45714;SDS011;31430;61.646;24.704;2023-05-24T04:40:00;22.00;;;20.60;;
45714;SDS011;31430;61.646;24.704;2023-05-24T04:42:27;22.35;;;20.95;;
45714;SDS011;31430;61.646;24.704;2023-05-24T04:44:56;22.25;;;20.85;;
45714;SDS011;31430;61.646;24.704;2023-05-24T04:49:48;23.25;;;21.75;;
45714;SDS011;31430;61.646;24.704;2023-05-24T04:52:15;22.75;;;21.35;;
45714;SDS011;31430;61.646;24.704;2023-05-24T04:57:06;23.27;;;21.77;;
45714;SDS011;31430;61.646;24.704;2023-05-24T04:59:32;22.55;;;21.15;;
45714;SDS011;31430;61.646;24.704;2023-05-24T05:01:58;22.80;;;21.40;;
45714;SDS011;31430;61.646;24.704;2023-05-24T05:04:24;22.15;;;20.75;;
45714;SDS011;31430;61.646;24.704;2023-05-24T05:06:49;21.98;;;20.58;;
45714;SDS011;31430;61.646;24.704;2023-05-24T05:09:16;22.70;;;21.30;;
45714;SDS011;31430;61.646;24.704;2023-05-24T05:11:43;23.20;;;21.70;;
45714;SDS011;31430;61.646;24.704;2023-05-24T05:14:10;23.20;;;21.70;;
45714;SDS011;31430;61.646;24.704;2023-05-24T05:16:36;22.45;;;21.05;;
45714;SDS011;31430;61.646;24.704;2023-05-24T05:19:02;22.65;;;21.25;;
45714;SDS011;31430;61.646;24.704;2023-05-24T05:21:29;21.65;;;20.25;;
45714;SDS011;31430;61.646;24.704;2023-05-24T05:23:57;21.65;;;20.25;;
45714;SDS011;31430;61.646;24.704;2023-05-24T05:26:27;21.80;;;20.40;;
45714;SDS011;31430;61.646;24.704;2023-05-24T05:28:54;21.40;;;20.05;;
45714;SDS011;31430;61.646;24.704;2023-05-24T05:31:21;22.05;;;20.65;;
45714;SDS011;31430;61.646;24.704;2023-05-24T05:33:46;21.60;;;20.20;;
45714;SDS011;31430;61.646;24.704;2023-05-24T05:36:12;21.98;;;20.58;;
45714;SDS011;31430;61.646;24.704;2023-05-24T05:38:38;21.63;;;20.23;;
45714;SDS011;31430;61.646;24.704;2023-05-24T05:41:03;21.75;;;20.35;;
45714;SDS011;31430;61.646;24.704;2023-05-24T05:43:30;22.02;;;20.63;;
45714;SDS011;31430;61.646;24.704;2023-05-24T05:45:55;21.85;;;20.45;;
45714;SDS011;31430;61.646;24.704;2023-05-24T05:48:21;22.15;;;20.75;;
45714;SDS011;31430;61.646;24.704;2023-05-24T05:50:47;21.73;;;20.33;;
45714;SDS011;31430;61.646;24.704;2023-05-24T05:53:14;21.73;;;20.33;;
45714;SDS011;31430;61.646;24.704;2023-05-24T05:55:40;21.13;;;19.83;;
45714;SDS011;31430;61.646;24.704;2023-05-24T05:58:06;21.45;;;20.10;;
45714;SDS011;31430;61.646;24.704;2023-05-24T06:00:31;21.65;;;20.25;;
45714;SDS011;31430;61.646;24.704;2023-05-24T06:02:57;21.42;;;20.08;;
45714;SDS011;31430;61.646;24.704;2023-05-24T06:05:23;21.20;;;19.88;;
45714;SDS011;31430;61.646;24.704;2023-05-24T06:07:48;21.27;;;19.95;;
45714;SDS011;31430;61.646;24.704;2023-05-24T06:10:14;21.80;;;20.40;;
45714;SDS011;31430;61.646;24.704;2023-05-24T06:12:40;22.25;;;20.85;;
45714;SDS011;31430;61.646;24.704;2023-05-24T06:15:06;21.52;;;20.15;;
45714;SDS011;31430;61.646;24.704;2023-05-24T06:17:32;21.52;;;20.15;;
45714;SDS011;31430;61.646;24.704;2023-05-24T06:22:24;22.55;;;21.15;;
45714;SDS011;31430;61.646;24.704;2023-05-24T06:24:52;21.33;;;20.00;;
45714;SDS011;31430;61.646;24.704;2023-05-24T06:27:18;21.23;;;19.92;;
45714;SDS011;31430;61.646;24.704;2023-05-24T06:29:43;21.50;;;20.15;;
45714;SDS011;31430;61.646;24.704;2023-05-24T06:32:09;21.58;;;20.17;;
45714;SDS011;31430;61.646;24.704;2023-05-24T06:34:35;21.45;;;20.10;;
45714;SDS011;31430;61.646;24.704;2023-05-24T06:37:01;21.55;;;20.17;;
45714;SDS011;31430;61.646;24.704;2023-05-24T06:39:27;21.52;;;20.15;;
45714;SDS011;31430;61.646;24.704;2023-05-24T06:41:52;21.33;;;20.00;;
45714;SDS011;31430;61.646;24.704;2023-05-24T06:44:18;20.42;;;19.13;;
45714;SDS011;31430;61.646;24.704;2023-05-24T06:46:47;21.58;;;20.20;;
45714;SDS011;31430;61.646;24.704;2023-05-24T06:49:13;21.52;;;20.15;;
45714;SDS011;31430;61.646;24.704;2023-05-24T06:51:38;21.52;;;20.15;;
45714;SDS011;31430;61.646;24.704;2023-05-24T06:54:04;21.05;;;19.75;;
45714;SDS011;31430;61.646;24.704;2023-05-24T06:56:30;21.20;;;19.88;;
45714;SDS011;31430;61.646;24.704;2023-05-24T06:58:57;21.05;;;19.75;;
45714;SDS011;31430;61.646;24.704;2023-05-24T07:01:23;20.77;;;19.48;;
45714;SDS011;31430;61.646;24.704;2023-05-24T07:03:51;21.23;;;19.92;;
45714;SDS011;31430;61.646;24.704;2023-05-24T07:06:17;20.77;;;19.48;;
45714;SDS011;31430;61.646;24.704;2023-05-24T07:08:42;20.48;;;19.17;;
45714;SDS011;31430;61.646;24.704;2023-05-24T07:11:08;21.15;;;19.85;;
45714;SDS011;31430;61.646;24.704;2023-05-24T07:13:34;21.20;;;19.88;;
45714;SDS011;31430;61.646;24.704;2023-05-24T07:16:00;21.23;;;19.92;;
45714;SDS011;31430;61.646;24.704;2023-05-24T07:18:26;20.85;;;19.55;;
45714;SDS011;31430;61.646;24.704;2023-05-24T07:20:51;20.60;;;19.30;;
45714;SDS011;31430;61.646;24.704;2023-05-24T07:23:18;20.95;;;19.65;;
45714;SDS011;31430;61.646;24.704;2023-05-24T07:25:44;20.88;;;19.58;;
45714;SDS011;31430;61.646;24.704;2023-05-24T07:28:10;21.02;;;19.73;;
45714;SDS011;31430;61.646;24.704;2023-05-24T07:30:38;21.05;;;19.75;;
45714;SDS011;31430;61.646;24.704;2023-05-24T07:33:03;21.15;;;19.85;;
45714;SDS011;31430;61.646;24.704;2023-05-24T07:35:29;21.80;;;20.40;;
45714;SDS011;31430;61.646;24.704;2023-05-24T07:37:55;21.02;;;19.73;;
45714;SDS011;31430;61.646;24.704;2023-05-24T07:40:20;20.98;;;19.67;;
45714;SDS011;31430;61.646;24.704;2023-05-24T07:45:12;21.67;;;20.27;;
45714;SDS011;31430;61.646;24.704;2023-05-24T07:47:39;21.83;;;20.42;;
45714;SDS011;31430;61.646;24.704;2023-05-24T07:50:05;22.35;;;20.95;;
45714;SDS011;31430;61.646;24.704;2023-05-24T07:54:56;21.42;;;20.08;;
45714;SDS011;31430;61.646;24.704;2023-05-24T07:57:22;20.60;;;19.30;;
45714;SDS011;31430;61.646;24.704;2023-05-24T07:59:48;20.95;;;19.65;;
45714;SDS011;31430;61.646;24.704;2023-05-24T08:02:13;20.83;;;19.52;;
45714;SDS011;31430;61.646;24.704;2023-05-24T08:04:40;20.02;;;18.75;;
45714;SDS011;31430;61.646;24.704;2023-05-24T08:07:08;20.55;;;19.25;;
45714;SDS011;31430;61.646;24.704;2023-05-24T08:09:33;20.75;;;19.45;;
45714;SDS011;31430;61.646;24.704;2023-05-24T08:12:04;20.05;;;18.75;;
45714;SDS011;31430;61.646;24.704;2023-05-24T08:14:30;20.42;;;19.13;;
45714;SDS011;31430;61.646;24.704;2023-05-24T08:16:56;19.88;;;18.60;;
45714;SDS011;31430;61.646;24.704;2023-05-24T08:19:22;20.45;;;19.15;;
45714;SDS011;31430;61.646;24.704;2023-05-24T08:21:48;20.30;;;19.00;;
45714;SDS011;31430;61.646;24.704;2023-05-24T08:24:13;20.15;;;18.85;;
45714;SDS011;31430;61.646;24.704;2023-05-24T08:26:40;20.35;;;19.05;;
45714;SDS011;31430;61.646;24.704;2023-05-24T08:29:07;20.00;;;18.70;;
45714;SDS011;31430;61.646;24.704;2023-05-24T08:31:33;20.48;;;19.17;;
45714;SDS011;31430;61.646;24.704;2023-05-24T08:33:58;20.42;;;19.13;;
45714;SDS011;31430;61.646;24.704;2023-05-24T08:36:25;19.83;;;18.55;;
45714;SDS011;31430;61.646;24.704;2023-05-24T08:38:50;19.95;;;18.65;;
45714;SDS011;31430;61.646;24.704;2023-05-24T08:41:16;20.35;;;19.05;;
45714;SDS011;31430;61.646;24.704;2023-05-24T08:43:42;20.35;;;19.05;;
45714;SDS011;31430;61.646;24.704;2023-05-24T08:46:08;19.60;;;18.40;;
45714;SDS011;31430;61.646;24.704;2023-05-24T08:48:37;20.20;;;18.90;;
45714;SDS011;31430;61.646;24.704;2023-05-24T08:51:13;20.17;;;18.88;;
45714;SDS011;31430;61.646;24.704;2023-05-24T08:53:40;19.40;;;18.20;;
45714;SDS011;31430;61.646;24.704;2023-05-24T08:56:15;19.38;;;18.17;;
45714;SDS011;31430;61.646;24.704;2023-05-24T08:58:42;19.35;;;18.15;;
45714;SDS011;31430;61.646;24.704;2023-05-24T09:03:36;20.55;;;19.25;;
45714;SDS011;31430;61.646;24.704;2023-05-24T09:06:04;20.42;;;19.13;;
45714;SDS011;31430;61.646;24.704;2023-05-24T09:08:33;19.52;;;18.30;;
45714;SDS011;31430;61.646;24.704;2023-05-24T09:11:00;20.55;;;19.25;;
45714;SDS011;31430;61.646;24.704;2023-05-24T09:13:27;20.15;;;18.85;;
45714;SDS011;31430;61.646;24.704;2023-05-24T09:18:19;19.60;;;18.38;;
45714;SDS011;31430;61.646;24.704;2023-05-24T09:20:45;20.15;;;18.85;;
45714;SDS011;31430;61.646;24.704;2023-05-24T09:23:10;19.95;;;18.65;;
45714;SDS011;31430;61.646;24.704;2023-05-24T09:25:42;19.25;;;18.05;;
45714;SDS011;31430;61.646;24.704;2023-05-24T09:28:09;18.60;;;17.40;;
45714;SDS011;31430;61.646;24.704;2023-05-24T09:30:42;19.27;;;18.08;;
45714;SDS011;31430;61.646;24.704;2023-05-24T09:33:08;19.23;;;18.02;;
45714;SDS011;31430;61.646;24.704;2023-05-24T09:35:35;19.23;;;18.02;;
45714;SDS011;31430;61.646;24.704;2023-05-24T09:38:01;19.05;;;17.85;;
45714;SDS011;31430;61.646;24.704;2023-05-24T09:40:28;18.50;;;17.30;;
45714;SDS011;31430;61.646;24.704;2023-05-24T09:45:29;20.05;;;18.75;;
45714;SDS011;31430;61.646;24.704;2023-05-24T09:47:55;19.42;;;18.23;;
45714;SDS011;31430;61.646;24.704;2023-05-24T09:50:21;19.10;;;17.90;;
45714;SDS011;31430;61.646;24.704;2023-05-24T09:52:47;18.92;;;17.73;;
45714;SDS011;31430;61.646;24.704;2023-05-24T09:55:13;19.05;;;17.85;;
45714;SDS011;31430;61.646;24.704;2023-05-24T09:57:41;19.17;;;17.98;;
45714;SDS011;31430;61.646;24.704;2023-05-24T10:00:08;18.23;;;17.05;;
45714;SDS011;31430;61.646;24.704;2023-05-24T10:02:41;18.65;;;17.45;;
45714;SDS011;31430;61.646;24.704;2023-05-24T10:05:08;17.80;;;16.70;;
45714;SDS011;31430;61.646;24.704;2023-05-24T10:07:35;17.45;;;16.35;;
45714;SDS011;31430;61.646;24.704;2023-05-24T10:10:03;17.35;;;16.25;;
45714;SDS011;31430;61.646;24.704;2023-05-24T10:12:32;18.73;;;17.52;;
45714;SDS011;31430;61.646;24.704;2023-05-24T10:14:59;17.75;;;16.65;;
45714;SDS011;31430;61.646;24.704;2023-05-24T10:17:26;17.75;;;16.65;;
45714;SDS011;31430;61.646;24.704;2023-05-24T10:19:52;17.95;;;16.85;;
45714;SDS011;31430;61.646;24.704;2023-05-24T10:22:18;18.23;;;17.05;;
45714;SDS011;31430;61.646;24.704;2023-05-24T10:24:49;18.52;;;17.33;;
45714;SDS011;31430;61.646;24.704;2023-05-24T10:27:21;18.40;;;17.20;;
45714;SDS011;31430;61.646;24.704;2023-05-24T10:32:38;18.35;;;17.15;;
45714;SDS011;31430;61.646;24.704;2023-05-24T10:35:07;18.58;;;17.38;;
45714;SDS011;31430;61.646;24.704;2023-05-24T10:37:36;17.63;;;16.52;;
45714;SDS011;31430;61.646;24.704;2023-05-24T10:40:02;18.30;;;17.13;;
45714;SDS011;31430;61.646;24.704;2023-05-24T10:42:31;18.17;;;17.00;;
45714;SDS011;31430;61.646;24.704;2023-05-24T10:44:57;17.55;;;16.45;;
45714;SDS011;31430;61.646;24.704;2023-05-24T10:47:24;18.10;;;16.95;;
45714;SDS011;31430;61.646;24.704;2023-05-24T10:49:55;17.85;;;16.75;;
45714;SDS011;31430;61.646;24.704;2023-05-24T10:52:33;18.25;;;17.08;;
45714;SDS011;31430;61.646;24.704;2023-05-24T10:55:07;18.10;;;16.95;;
45714;SDS011;31430;61.646;24.704;2023-05-24T10:57:34;17.90;;;16.75;;
45714;SDS011;31430;61.646;24.704;2023-05-24T11:03:01;18.17;;;17.00;;
45714;SDS011;31430;61.646;24.704;2023-05-24T11:08:14;18.45;;;17.25;;
45714;SDS011;31430;61.646;24.704;2023-05-24T11:11:09;18.45;;;17.25;;
45714;SDS011;31430;61.646;24.704;2023-05-24T11:13:36;17.90;;;16.80;;
45714;SDS011;31430;61.646;24.704;2023-05-24T11:16:03;17.63;;;16.52;;
45714;SDS011;31430;61.646;24.704;2023-05-24T11:18:30;18.23;;;17.05;;
45714;SDS011;31430;61.646;24.704;2023-05-24T11:23:25;17.98;;;16.85;;
45714;SDS011;31430;61.646;24.704;2023-05-24T11:25:51;18.65;;;17.45;;
45714;SDS011;31430;61.646;24.704;2023-05-24T11:28:17;18.35;;;17.15;;
45714;SDS011;31430;61.646;24.704;2023-05-24T11:30:43;18.65;;;17.45;;
45714;SDS011;31430;61.646;24.704;2023-05-24T11:33:20;18.50;;;17.30;;
45714;SDS011;31430;61.646;24.704;2023-05-24T11:35:50;18.80;;;17.60;;
45714;SDS011;31430;61.646;24.704;2023-05-24T11:38:17;17.77;;;16.67;;
45714;SDS011;31430;61.646;24.704;2023-05-24T11:40:45;17.70;;;16.60;;
45714;SDS011;31430;61.646;24.704;2023-05-24T11:43:20;17.75;;;16.65;;
45714;SDS011;31430;61.646;24.704;2023-05-24T11:45:50;17.25;;;16.15;;
45714;SDS011;31430;61.646;24.704;2023-05-24T11:48:17;17.65;;;16.55;;
45714;SDS011;31430;61.646;24.704;2023-05-24T11:50:44;17.35;;;16.25;;
45714;SDS011;31430;61.646;24.704;2023-05-24T11:53:13;17.42;;;16.33;;
45714;SDS011;31430;61.646;24.704;2023-05-24T11:55:40;17.42;;;16.33;;
45714;SDS011;31430;61.646;24.704;2023-05-24T11:58:10;17.33;;;16.23;;
45714;SDS011;31430;61.646;24.704;2023-05-24T12:00:41;17.65;;;16.55;;
45714;SDS011;31430;61.646;24.704;2023-05-24T12:03:07;17.73;;;16.63;;
45714;SDS011;31430;61.646;24.704;2023-05-24T12:05:34;17.98;;;16.85;;
45714;SDS011;31430;61.646;24.704;2023-05-24T12:08:08;17.85;;;16.75;;
45714;SDS011;31430;61.646;24.704;2023-05-24T12:10:36;17.15;;;16.05;;
45714;SDS011;31430;61.646;24.704;2023-05-24T12:13:04;17.35;;;16.25;;
45714;SDS011;31430;61.646;24.704;2023-05-24T12:15:31;17.85;;;16.75;;
45714;SDS011;31430;61.646;24.704;2023-05-24T12:17:57;17.15;;;16.05;;
45714;SDS011;31430;61.646;24.704;2023-05-24T12:20:25;17.83;;;16.73;;
45714;SDS011;31430;61.646;24.704;2023-05-24T12:22:52;17.98;;;16.85;;
45714;SDS011;31430;61.646;24.704;2023-05-24T12:25:20;17.35;;;16.25;;
45714;SDS011;31430;61.646;24.704;2023-05-24T12:27:50;17.45;;;16.35;;
45714;SDS011;31430;61.646;24.704;2023-05-24T12:30:21;17.17;;;16.08;;
45714;SDS011;31430;61.646;24.704;2023-05-24T12:32:47;16.88;;;15.77;;
45714;SDS011;31430;61.646;24.704;2023-05-24T12:35:15;17.38;;;16.27;;
45714;SDS011;31430;61.646;24.704;2023-05-24T12:37:42;17.25;;;16.15;;
45714;SDS011;31430;61.646;24.704;2023-05-24T12:40:18;16.77;;;15.68;;
45714;SDS011;31430;61.646;24.704;2023-05-24T12:42:45;16.85;;;15.75;;
45714;SDS011;31430;61.646;24.704;2023-05-24T12:45:15;16.95;;;15.85;;
45714;SDS011;31430;61.646;24.704;2023-05-24T12:47:46;17.05;;;15.95;;
45714;SDS011;31430;61.646;24.704;2023-05-24T12:50:13;16.85;;;15.75;;
45714;SDS011;31430;61.646;24.704;2023-05-24T12:52:41;17.40;;;16.30;;
45714;SDS011;31430;61.646;24.704;2023-05-24T12:55:08;16.92;;;15.82;;
45714;SDS011;31430;61.646;24.704;2023-05-24T12:57:33;17.45;;;16.35;;
45714;SDS011;31430;61.646;24.704;2023-05-24T12:59:59;17.05;;;15.95;;
45714;SDS011;31430;61.646;24.704;2023-05-24T13:02:25;16.23;;;15.23;;
45714;SDS011;31430;61.646;24.704;2023-05-24T13:04:51;16.98;;;15.88;;
45714;SDS011;31430;61.646;24.704;2023-05-24T13:07:16;16.60;;;15.52;;
45714;SDS011;31430;61.646;24.704;2023-05-24T13:09:42;16.55;;;15.50;;
45714;SDS011;31430;61.646;24.704;2023-05-24T13:12:08;16.08;;;15.07;;
45714;SDS011;31430;61.646;24.704;2023-05-24T13:14:35;16.65;;;15.57;;
45714;SDS011;31430;61.646;24.704;2023-05-24T13:19:26;16.83;;;15.73;;
45714;SDS011;31430;61.646;24.704;2023-05-24T13:21:52;17.30;;;16.20;;
45714;SDS011;31430;61.646;24.704;2023-05-24T13:24:18;17.33;;;16.23;;
45714;SDS011;31430;61.646;24.704;2023-05-24T13:26:44;16.80;;;15.70;;
45714;SDS011;31430;61.646;24.704;2023-05-24T13:29:10;17.25;;;16.15;;
45714;SDS011;31430;61.646;24.704;2023-05-24T13:31:36;17.10;;;16.00;;
45714;SDS011;31430;61.646;24.704;2023-05-24T13:34:01;16.95;;;15.85;;
45714;SDS011;31430;61.646;24.704;2023-05-24T13:36:27;16.38;;;15.35;;
45714;SDS011;31430;61.646;24.704;2023-05-24T13:38:53;16.40;;;15.38;;
45714;SDS011;31430;61.646;24.704;2023-05-24T13:41:19;16.58;;;15.50;;
45714;SDS011;31430;61.646;24.704;2023-05-24T13:43:44;16.77;;;15.68;;
45714;SDS011;31430;61.646;24.704;2023-05-24T13:48:37;17.10;;;16.00;;
45714;SDS011;31430;61.646;24.704;2023-05-24T13:51:03;16.85;;;15.75;;
45714;SDS011;31430;61.646;24.704;2023-05-24T13:53:29;16.67;;;15.60;;
45714;SDS011;31430;61.646;24.704;2023-05-24T13:55:55;16.55;;;15.48;;
45714;SDS011;31430;61.646;24.704;2023-05-24T13:58:21;16.60;;;15.52;;
45714;SDS011;31430;61.646;24.704;2023-05-24T14:00:47;16.60;;;15.52;;
45714;SDS011;31430;61.646;24.704;2023-05-24T14:03:12;16.50;;;15.45;;
45714;SDS011;31430;61.646;24.704;2023-05-24T14:05:39;15.75;;;14.75;;
45714;SDS011;31430;61.646;24.704;2023-05-24T14:10:35;16.17;;;15.18;;
45714;SDS011;31430;61.646;24.704;2023-05-24T14:13:06;15.88;;;14.88;;
45714;SDS011;31430;61.646;24.704;2023-05-24T14:15:31;16.63;;;15.55;;
45714;SDS011;31430;61.646;24.704;2023-05-24T14:17:59;16.20;;;15.20;;
45714;SDS011;31430;61.646;24.704;2023-05-24T14:20:25;16.38;;;15.35;;
45714;SDS011;31430;61.646;24.704;2023-05-24T14:22:51;16.83;;;15.73;;
45714;SDS011;31430;61.646;24.704;2023-05-24T14:25:17;16.55;;;15.48;;
45714;SDS011;31430;61.646;24.704;2023-05-24T14:27:42;16.55;;;15.48;;
45714;SDS011;31430;61.646;24.704;2023-05-24T14:30:09;16.38;;;15.35;;
45714;SDS011;31430;61.646;24.704;2023-05-24T14:32:36;16.17;;;15.18;;
45714;SDS011;31430;61.646;24.704;2023-05-24T14:35:01;15.95;;;14.95;;
45714;SDS011;31430;61.646;24.704;2023-05-24T14:37:27;16.08;;;15.07;;
45714;SDS011;31430;61.646;24.704;2023-05-24T14:39:53;16.63;;;15.55;;
45714;SDS011;31430;61.646;24.704;2023-05-24T14:42:19;16.55;;;15.48;;
45714;SDS011;31430;61.646;24.704;2023-05-24T14:44:45;16.15;;;15.15;;
45714;SDS011;31430;61.646;24.704;2023-05-24T14:47:11;16.50;;;15.45;;
45714;SDS011;31430;61.646;24.704;2023-05-24T14:49:36;16.38;;;15.35;;
45714;SDS011;31430;61.646;24.704;2023-05-24T14:52:02;15.95;;;14.95;;
45714;SDS011;31430;61.646;24.704;2023-05-24T14:54:28;16.50;;;15.45;;
45714;SDS011;31430;61.646;24.704;2023-05-24T14:56:53;16.38;;;15.35;;
45714;SDS011;31430;61.646;24.704;2023-05-24T14:59:19;15.88;;;14.88;;
45714;SDS011;31430;61.646;24.704;2023-05-24T15:01:45;16.33;;;15.30;;
45714;SDS011;31430;61.646;24.704;2023-05-24T15:04:10;17.15;;;16.05;;
45714;SDS011;31430;61.646;24.704;2023-05-24T15:06:36;16.60;;;15.52;;
45714;SDS011;31430;61.646;24.704;2023-05-24T15:11:30;16.95;;;15.85;;
45714;SDS011;31430;61.646;24.704;2023-05-24T15:13:56;16.95;;;15.85;;
45714;SDS011;31430;61.646;24.704;2023-05-24T15:16:25;16.27;;;15.27;;
45714;SDS011;31430;61.646;24.704;2023-05-24T15:21:18;16.63;;;15.52;;
45714;SDS011;31430;61.646;24.704;2023-05-24T15:23:44;17.55;;;16.45;;
45714;SDS011;31430;61.646;24.704;2023-05-24T15:26:11;16.63;;;15.52;;
45714;SDS011;31430;61.646;24.704;2023-05-24T15:28:36;16.95;;;15.85;;